KFMY

Page Field Airport

Fort Myers, Florida, USA
METAR KFMY 191053Z AUTO 08007KT 10SM CLR 12/11 A3003 RMK AO2 SLP172 T01220111 $
Observed Flight Rules
Dec-19 @ 10:53 UTC (46 minutes ago) Visual Flight Rules
Wind Visibility Clouds
80° at 7 knots 10 miles
  • Clear skies
Temperatures Readings
Current 12°C / 54°F
Dewpoint 11°C / 52°F
Humidity 94%
Altimeter 30.03" Hg
Pressure 1017.2 hPa
Elevation 4
METAR KFMY 191053Z AUTO 08007KT 10SM CLR 12/11 A3003 RMK AO2 SLP172 T01220111 $
Observed Flight Rules
Dec-19 @ 10:53 UTC
(46 minutes ago)
VFR
Wind Visibility
80° at 7 knots 10 miles
Clouds
  • Clear skies
Temperature Dewpoint
12°C / 54°F 11°C / 52°F
Humidity Altimeter Pressure
94% 30.03" Hg 1017.2 hPa